sensor_id;sensor_type;location;lat;lon;timestamp;P1;durP1;ratioP1;P2;durP2;ratioP2
3613;SDS011;1821;50.936;6.854;2022-08-19T00:00:18;9.02;;;7.80;;
3613;SDS011;1821;50.936;6.854;2022-08-19T00:01:00;9.55;;;8.20;;
3613;SDS011;1821;50.936;6.854;2022-08-19T00:01:42;9.70;;;7.88;;
3613;SDS011;1821;50.936;6.854;2022-08-19T00:02:33;9.05;;;7.85;;
3613;SDS011;1821;50.936;6.854;2022-08-19T00:03:15;9.27;;;7.53;;
3613;SDS011;1821;50.936;6.854;2022-08-19T00:03:57;9.20;;;8.30;;
3613;SDS011;1821;50.936;6.854;2022-08-19T00:04:40;9.80;;;8.10;;
3613;SDS011;1821;50.936;6.854;2022-08-19T00:05:22;8.50;;;7.53;;
3613;SDS011;1821;50.936;6.854;2022-08-19T00:06:04;9.18;;;7.97;;
3613;SDS011;1821;50.936;6.854;2022-08-19T00:06:46;8.00;;;7.20;;
3613;SDS011;1821;50.936;6.854;2022-08-19T00:07:28;8.32;;;7.45;;
3613;SDS011;1821;50.936;6.854;2022-08-19T00:08:10;8.67;;;7.83;;
3613;SDS011;1821;50.936;6.854;2022-08-19T00:08:52;8.82;;;8.02;;
3613;SDS011;1821;50.936;6.854;2022-08-19T00:09:34;9.07;;;7.95;;
3613;SDS011;1821;50.936;6.854;2022-08-19T00:10:16;11.70;;;8.02;;
3613;SDS011;1821;50.936;6.854;2022-08-19T00:10:58;9.18;;;8.27;;
3613;SDS011;1821;50.936;6.854;2022-08-19T00:11:40;8.55;;;7.57;;
3613;SDS011;1821;50.936;6.854;2022-08-19T00:12:22;8.75;;;7.80;;
3613;SDS011;1821;50.936;6.854;2022-08-19T00:13:04;8.18;;;7.38;;
3613;SDS011;1821;50.936;6.854;2022-08-19T00:13:46;8.20;;;7.38;;
3613;SDS011;1821;50.936;6.854;2022-08-19T00:14:29;8.55;;;7.75;;
3613;SDS011;1821;50.936;6.854;2022-08-19T00:15:14;8.40;;;7.50;;
3613;SDS011;1821;50.936;6.854;2022-08-19T00:15:57;9.60;;;8.20;;
3613;SDS011;1821;50.936;6.854;2022-08-19T00:16:41;9.75;;;8.18;;
3613;SDS011;1821;50.936;6.854;2022-08-19T00:17:25;9.27;;;7.75;;
3613;SDS011;1821;50.936;6.854;2022-08-19T00:18:07;8.45;;;7.57;;
3613;SDS011;1821;50.936;6.854;2022-08-19T00:18:48;10.00;;;8.32;;
3613;SDS011;1821;50.936;6.854;2022-08-19T00:19:30;8.55;;;7.70;;
3613;SDS011;1821;50.936;6.854;2022-08-19T00:20:13;8.52;;;7.60;;
3613;SDS011;1821;50.936;6.854;2022-08-19T00:20:58;9.40;;;7.47;;
3613;SDS011;1821;50.936;6.854;2022-08-19T00:21:40;9.52;;;7.75;;
3613;SDS011;1821;50.936;6.854;2022-08-19T00:22:22;9.35;;;8.10;;
3613;SDS011;1821;50.936;6.854;2022-08-19T00:23:04;9.35;;;8.55;;
3613;SDS011;1821;50.936;6.854;2022-08-19T00:23:46;9.18;;;8.23;;
3613;SDS011;1821;50.936;6.854;2022-08-19T00:24:28;9.50;;;8.23;;
3613;SDS011;1821;50.936;6.854;2022-08-19T00:25:10;9.15;;;7.97;;
3613;SDS011;1821;50.936;6.854;2022-08-19T00:25:55;8.82;;;7.55;;
3613;SDS011;1821;50.936;6.854;2022-08-19T00:26:37;9.90;;;7.63;;
3613;SDS011;1821;50.936;6.854;2022-08-19T00:27:20;10.90;;;8.10;;
3613;SDS011;1821;50.936;6.854;2022-08-19T00:28:06;11.18;;;7.82;;
3613;SDS011;1821;50.936;6.854;2022-08-19T00:28:48;9.93;;;7.82;;
3613;SDS011;1821;50.936;6.854;2022-08-19T00:29:30;8.77;;;7.88;;
3613;SDS011;1821;50.936;6.854;2022-08-19T00:30:12;8.88;;;8.07;;
3613;SDS011;1821;50.936;6.854;2022-08-19T00:30:54;9.23;;;8.10;;
3613;SDS011;1821;50.936;6.854;2022-08-19T00:31:36;9.10;;;8.10;;
3613;SDS011;1821;50.936;6.854;2022-08-19T00:32:18;9.10;;;8.30;;
3613;SDS011;1821;50.936;6.854;2022-08-19T00:33:01;9.07;;;8.18;;
3613;SDS011;1821;50.936;6.854;2022-08-19T00:33:43;9.50;;;8.50;;
3613;SDS011;1821;50.936;6.854;2022-08-19T00:34:25;8.80;;;7.90;;
3613;SDS011;1821;50.936;6.854;2022-08-19T00:35:11;9.90;;;7.82;;
3613;SDS011;1821;50.936;6.854;2022-08-19T00:35:54;9.60;;;8.30;;
3613;SDS011;1821;50.936;6.854;2022-08-19T00:36:36;8.55;;;7.60;;
3613;SDS011;1821;50.936;6.854;2022-08-19T00:37:19;7.85;;;7.07;;
3613;SDS011;1821;50.936;6.854;2022-08-19T00:38:04;7.70;;;6.90;;
3613;SDS011;1821;50.936;6.854;2022-08-19T00:38:47;8.93;;;7.85;;
3613;SDS011;1821;50.936;6.854;2022-08-19T00:39:29;9.35;;;8.45;;
3613;SDS011;1821;50.936;6.854;2022-08-19T00:40:12;10.15;;;9.05;;
3613;SDS011;1821;50.936;6.854;2022-08-19T00:40:55;11.07;;;8.85;;
3613;SDS011;1821;50.936;6.854;2022-08-19T00:41:37;12.40;;;8.50;;
3613;SDS011;1821;50.936;6.854;2022-08-19T00:42:21;11.00;;;8.18;;
3613;SDS011;1821;50.936;6.854;2022-08-19T00:43:10;10.70;;;8.50;;
3613;SDS011;1821;50.936;6.854;2022-08-19T00:44:06;9.00;;;8.02;;
3613;SDS011;1821;50.936;6.854;2022-08-19T00:44:51;8.63;;;7.70;;
3613;SDS011;1821;50.936;6.854;2022-08-19T00:45:33;9.70;;;8.70;;
3613;SDS011;1821;50.936;6.854;2022-08-19T00:46:16;9.80;;;8.80;;
3613;SDS011;1821;50.936;6.854;2022-08-19T00:46:59;10.48;;;9.48;;
3613;SDS011;1821;50.936;6.854;2022-08-19T00:47:41;10.20;;;9.20;;
3613;SDS011;1821;50.936;6.854;2022-08-19T00:48:23;9.57;;;8.68;;
3613;SDS011;1821;50.936;6.854;2022-08-19T00:49:06;9.15;;;8.35;;
3613;SDS011;1821;50.936;6.854;2022-08-19T00:50:15;9.88;;;8.98;;
3613;SDS011;1821;50.936;6.854;2022-08-19T00:50:59;11.50;;;8.70;;
3613;SDS011;1821;50.936;6.854;2022-08-19T00:51:42;10.23;;;8.70;;
3613;SDS011;1821;50.936;6.854;2022-08-19T00:52:28;9.25;;;8.35;;
3613;SDS011;1821;50.936;6.854;2022-08-19T00:53:14;8.90;;;8.00;;
3613;SDS011;1821;50.936;6.854;2022-08-19T00:53:59;10.82;;;8.73;;
3613;SDS011;1821;50.936;6.854;2022-08-19T00:54:42;12.20;;;8.57;;
3613;SDS011;1821;50.936;6.854;2022-08-19T00:55:30;14.23;;;9.13;;
3613;SDS011;1821;50.936;6.854;2022-08-19T00:56:13;10.53;;;8.83;;
3613;SDS011;1821;50.936;6.854;2022-08-19T00:56:56;9.48;;;8.48;;
3613;SDS011;1821;50.936;6.854;2022-08-19T00:57:40;9.38;;;8.40;;
3613;SDS011;1821;50.936;6.854;2022-08-19T00:58:28;10.27;;;9.27;;
3613;SDS011;1821;50.936;6.854;2022-08-19T00:59:13;11.20;;;9.40;;
3613;SDS011;1821;50.936;6.854;2022-08-19T01:00:18;9.30;;;8.38;;
3613;SDS011;1821;50.936;6.854;2022-08-19T01:01:02;9.73;;;8.57;;
3613;SDS011;1821;50.936;6.854;2022-08-19T01:01:45;10.65;;;9.55;;
3613;SDS011;1821;50.936;6.854;2022-08-19T01:02:29;11.15;;;8.95;;
3613;SDS011;1821;50.936;6.854;2022-08-19T01:03:13;10.57;;;8.60;;
3613;SDS011;1821;50.936;6.854;2022-08-19T01:03:59;9.60;;;8.60;;
3613;SDS011;1821;50.936;6.854;2022-08-19T01:04:41;9.32;;;8.43;;
3613;SDS011;1821;50.936;6.854;2022-08-19T01:05:26;9.40;;;8.50;;
3613;SDS011;1821;50.936;6.854;2022-08-19T01:06:10;10.03;;;9.03;;
3613;SDS011;1821;50.936;6.854;2022-08-19T01:06:52;10.27;;;9.18;;
3613;SDS011;1821;50.936;6.854;2022-08-19T01:07:34;9.98;;;8.82;;
3613;SDS011;1821;50.936;6.854;2022-08-19T01:08:19;10.93;;;9.10;;
3613;SDS011;1821;50.936;6.854;2022-08-19T01:09:01;9.05;;;8.10;;
3613;SDS011;1821;50.936;6.854;2022-08-19T01:09:43;9.48;;;8.50;;
3613;SDS011;1821;50.936;6.854;2022-08-19T01:10:26;10.38;;;9.05;;
3613;SDS011;1821;50.936;6.854;2022-08-19T01:11:16;9.10;;;8.13;;
3613;SDS011;1821;50.936;6.854;2022-08-19T01:11:58;10.85;;;8.75;;
3613;SDS011;1821;50.936;6.854;2022-08-19T01:12:40;10.93;;;9.15;;
3613;SDS011;1821;50.936;6.854;2022-08-19T01:13:23;8.98;;;8.07;;
3613;SDS011;1821;50.936;6.854;2022-08-19T01:14:07;9.30;;;8.45;;
3613;SDS011;1821;50.936;6.854;2022-08-19T01:14:50;10.27;;;9.10;;
3613;SDS011;1821;50.936;6.854;2022-08-19T01:15:38;9.85;;;8.85;;
3613;SDS011;1821;50.936;6.854;2022-08-19T01:16:33;10.02;;;8.63;;
3613;SDS011;1821;50.936;6.854;2022-08-19T01:17:16;12.90;;;8.52;;
3613;SDS011;1821;50.936;6.854;2022-08-19T01:18:00;10.30;;;8.43;;
3613;SDS011;1821;50.936;6.854;2022-08-19T01:18:50;9.40;;;8.00;;
3613;SDS011;1821;50.936;6.854;2022-08-19T01:19:37;9.60;;;8.60;;
3613;SDS011;1821;50.936;6.854;2022-08-19T01:20:24;10.60;;;9.30;;
3613;SDS011;1821;50.936;6.854;2022-08-19T01:21:09;10.35;;;8.98;;
3613;SDS011;1821;50.936;6.854;2022-08-19T01:23:14;10.38;;;8.75;;
3613;SDS011;1821;50.936;6.854;2022-08-19T01:23:56;9.60;;;8.60;;
3613;SDS011;1821;50.936;6.854;2022-08-19T01:24:38;9.52;;;8.52;;
3613;SDS011;1821;50.936;6.854;2022-08-19T01:25:35;11.65;;;8.77;;
3613;SDS011;1821;50.936;6.854;2022-08-19T01:26:26;12.00;;;9.40;;
3613;SDS011;1821;50.936;6.854;2022-08-19T01:27:11;10.35;;;8.80;;
3613;SDS011;1821;50.936;6.854;2022-08-19T01:27:53;9.73;;;8.82;;
3613;SDS011;1821;50.936;6.854;2022-08-19T01:28:35;9.02;;;8.13;;
3613;SDS011;1821;50.936;6.854;2022-08-19T01:29:22;10.52;;;9.18;;
3613;SDS011;1821;50.936;6.854;2022-08-19T01:30:05;10.23;;;9.20;;
3613;SDS011;1821;50.936;6.854;2022-08-19T01:30:48;9.90;;;9.00;;
3613;SDS011;1821;50.936;6.854;2022-08-19T01:31:31;9.35;;;8.35;;
3613;SDS011;1821;50.936;6.854;2022-08-19T01:32:14;11.73;;;8.57;;
3613;SDS011;1821;50.936;6.854;2022-08-19T01:33:13;11.43;;;8.73;;
3613;SDS011;1821;50.936;6.854;2022-08-19T01:33:56;10.20;;;8.38;;
3613;SDS011;1821;50.936;6.854;2022-08-19T01:34:38;11.32;;;8.25;;
3613;SDS011;1821;50.936;6.854;2022-08-19T01:35:21;10.15;;;8.68;;
3613;SDS011;1821;50.936;6.854;2022-08-19T01:36:11;13.02;;;10.02;;
3613;SDS011;1821;50.936;6.854;2022-08-19T01:36:55;12.15;;;9.50;;
3613;SDS011;1821;50.936;6.854;2022-08-19T01:38:39;10.05;;;8.90;;
3613;SDS011;1821;50.936;6.854;2022-08-19T01:39:24;10.27;;;8.85;;
3613;SDS011;1821;50.936;6.854;2022-08-19T01:40:07;9.63;;;8.68;;
3613;SDS011;1821;50.936;6.854;2022-08-19T01:40:50;10.10;;;9.10;;
3613;SDS011;1821;50.936;6.854;2022-08-19T01:41:32;9.90;;;8.90;;
3613;SDS011;1821;50.936;6.854;2022-08-19T01:42:14;9.73;;;8.82;;
3613;SDS011;1821;50.936;6.854;2022-08-19T01:42:56;10.57;;;8.95;;
3613;SDS011;1821;50.936;6.854;2022-08-19T01:43:38;13.82;;;9.20;;
3613;SDS011;1821;50.936;6.854;2022-08-19T01:44:41;12.57;;;10.50;;
3613;SDS011;1821;50.936;6.854;2022-08-19T01:45:24;10.50;;;9.35;;
3613;SDS011;1821;50.936;6.854;2022-08-19T01:46:08;10.95;;;9.75;;
3613;SDS011;1821;50.936;6.854;2022-08-19T01:46:50;10.75;;;9.65;;
3613;SDS011;1821;50.936;6.854;2022-08-19T01:47:34;12.48;;;10.25;;
3613;SDS011;1821;50.936;6.854;2022-08-19T01:48:18;11.30;;;10.10;;
3613;SDS011;1821;50.936;6.854;2022-08-19T01:49:01;10.50;;;8.90;;
3613;SDS011;1821;50.936;6.854;2022-08-19T01:49:44;10.70;;;9.65;;
3613;SDS011;1821;50.936;6.854;2022-08-19T01:50:26;13.43;;;10.63;;
3613;SDS011;1821;50.936;6.854;2022-08-19T01:51:09;11.82;;;9.82;;
3613;SDS011;1821;50.936;6.854;2022-08-19T01:51:53;14.45;;;9.35;;
3613;SDS011;1821;50.936;6.854;2022-08-19T01:52:36;12.07;;;9.60;;
3613;SDS011;1821;50.936;6.854;2022-08-19T01:53:19;13.70;;;10.35;;
3613;SDS011;1821;50.936;6.854;2022-08-19T01:54:03;12.27;;;10.98;;
3613;SDS011;1821;50.936;6.854;2022-08-19T01:54:45;12.20;;;10.80;;
3613;SDS011;1821;50.936;6.854;2022-08-19T01:55:26;13.40;;;10.18;;
3613;SDS011;1821;50.936;6.854;2022-08-19T01:56:08;12.57;;;10.90;;
3613;SDS011;1821;50.936;6.854;2022-08-19T01:56:51;10.77;;;9.68;;
3613;SDS011;1821;50.936;6.854;2022-08-19T01:57:36;10.40;;;9.30;;
3613;SDS011;1821;50.936;6.854;2022-08-19T01:58:21;10.90;;;9.30;;
3613;SDS011;1821;50.936;6.854;2022-08-19T01:59:13;9.85;;;8.85;;
3613;SDS011;1821;50.936;6.854;2022-08-19T01:59:57;9.88;;;8.98;;
3613;SDS011;1821;50.936;6.854;2022-08-19T02:00:39;10.95;;;9.85;;
3613;SDS011;1821;50.936;6.854;2022-08-19T02:01:21;12.10;;;10.18;;
3613;SDS011;1821;50.936;6.854;2022-08-19T02:02:04;12.63;;;10.43;;
3613;SDS011;1821;50.936;6.854;2022-08-19T02:02:48;10.93;;;9.82;;
3613;SDS011;1821;50.936;6.854;2022-08-19T02:03:30;10.65;;;9.55;;
3613;SDS011;1821;50.936;6.854;2022-08-19T02:04:12;10.68;;;9.50;;
3613;SDS011;1821;50.936;6.854;2022-08-19T02:04:54;10.27;;;9.18;;
3613;SDS011;1821;50.936;6.854;2022-08-19T02:05:36;10.38;;;9.38;;
3613;SDS011;1821;50.936;6.854;2022-08-19T02:06:19;11.13;;;10.02;;
3613;SDS011;1821;50.936;6.854;2022-08-19T02:07:07;11.30;;;9.73;;
3613;SDS011;1821;50.936;6.854;2022-08-19T02:07:49;10.93;;;9.82;;
3613;SDS011;1821;50.936;6.854;2022-08-19T02:08:32;11.00;;;9.80;;
3613;SDS011;1821;50.936;6.854;2022-08-19T02:09:16;11.40;;;10.20;;
3613;SDS011;1821;50.936;6.854;2022-08-19T02:09:58;10.50;;;9.40;;
3613;SDS011;1821;50.936;6.854;2022-08-19T02:10:43;10.35;;;8.73;;
3613;SDS011;1821;50.936;6.854;2022-08-19T02:11:26;13.15;;;9.35;;
3613;SDS011;1821;50.936;6.854;2022-08-19T02:12:12;10.48;;;9.20;;
3613;SDS011;1821;50.936;6.854;2022-08-19T02:12:54;12.73;;;9.48;;
3613;SDS011;1821;50.936;6.854;2022-08-19T02:13:36;12.88;;;9.80;;
3613;SDS011;1821;50.936;6.854;2022-08-19T02:14:18;10.65;;;9.55;;
3613;SDS011;1821;50.936;6.854;2022-08-19T02:14:59;11.70;;;9.63;;
3613;SDS011;1821;50.936;6.854;2022-08-19T02:15:42;11.65;;;9.70;;
3613;SDS011;1821;50.936;6.854;2022-08-19T02:16:24;12.15;;;9.98;;
3613;SDS011;1821;50.936;6.854;2022-08-19T02:17:06;10.75;;;9.15;;
3613;SDS011;1821;50.936;6.854;2022-08-19T02:17:48;10.60;;;9.40;;
3613;SDS011;1821;50.936;6.854;2022-08-19T02:18:30;10.38;;;9.27;;
3613;SDS011;1821;50.936;6.854;2022-08-19T02:19:11;13.60;;;9.70;;
3613;SDS011;1821;50.936;6.854;2022-08-19T02:19:54;10.55;;;9.30;;
3613;SDS011;1821;50.936;6.854;2022-08-19T02:20:36;10.82;;;9.65;;
3613;SDS011;1821;50.936;6.854;2022-08-19T02:21:20;12.27;;;9.70;;
3613;SDS011;1821;50.936;6.854;2022-08-19T02:22:03;11.43;;;10.20;;
3613;SDS011;1821;50.936;6.854;2022-08-19T02:22:46;11.15;;;10.05;;
3613;SDS011;1821;50.936;6.854;2022-08-19T02:23:28;11.25;;;9.60;;
3613;SDS011;1821;50.936;6.854;2022-08-19T02:24:09;13.35;;;9.65;;
3613;SDS011;1821;50.936;6.854;2022-08-19T02:24:52;11.00;;;9.90;;
3613;SDS011;1821;50.936;6.854;2022-08-19T02:25:34;12.55;;;9.68;;
3613;SDS011;1821;50.936;6.854;2022-08-19T02:26:16;11.40;;;9.10;;
3613;SDS011;1821;50.936;6.854;2022-08-19T02:26:59;11.75;;;8.95;;
3613;SDS011;1821;50.936;6.854;2022-08-19T02:27:41;9.55;;;8.40;;
3613;SDS011;1821;50.936;6.854;2022-08-19T02:28:24;9.80;;;8.90;;
3613;SDS011;1821;50.936;6.854;2022-08-19T02:29:05;11.38;;;9.77;;
3613;SDS011;1821;50.936;6.854;2022-08-19T02:29:48;12.55;;;10.52;;
3613;SDS011;1821;50.936;6.854;2022-08-19T02:30:30;10.85;;;9.75;;
3613;SDS011;1821;50.936;6.854;2022-08-19T02:31:13;11.15;;;9.30;;
3613;SDS011;1821;50.936;6.854;2022-08-19T02:31:58;12.55;;;9.63;;
3613;SDS011;1821;50.936;6.854;2022-08-19T02:32:40;12.38;;;9.82;;
3613;SDS011;1821;50.936;6.854;2022-08-19T02:33:34;10.65;;;9.55;;
3613;SDS011;1821;50.936;6.854;2022-08-19T02:34:16;10.85;;;9.68;;
3613;SDS011;1821;50.936;6.854;2022-08-19T02:34:58;11.75;;;9.68;;
3613;SDS011;1821;50.936;6.854;2022-08-19T02:35:41;10.63;;;9.52;;
3613;SDS011;1821;50.936;6.854;2022-08-19T02:36:24;12.05;;;9.35;;
3613;SDS011;1821;50.936;6.854;2022-08-19T02:37:06;10.52;;;9.43;;
3613;SDS011;1821;50.936;6.854;2022-08-19T02:38:08;12.02;;;9.85;;
3613;SDS011;1821;50.936;6.854;2022-08-19T02:39:09;11.90;;;10.60;;
3613;SDS011;1821;50.936;6.854;2022-08-19T02:39:51;11.70;;;10.60;;
3613;SDS011;1821;50.936;6.854;2022-08-19T02:40:33;12.93;;;11.55;;
3613;SDS011;1821;50.936;6.854;2022-08-19T02:41:19;13.57;;;12.10;;
3613;SDS011;1821;50.936;6.854;2022-08-19T02:42:06;13.18;;;10.63;;
3613;SDS011;1821;50.936;6.854;2022-08-19T02:42:48;12.50;;;11.20;;
3613;SDS011;1821;50.936;6.854;2022-08-19T02:43:31;12.25;;;10.80;;
3613;SDS011;1821;50.936;6.854;2022-08-19T02:44:14;11.40;;;10.25;;
3613;SDS011;1821;50.936;6.854;2022-08-19T02:45:12;13.30;;;10.90;;
3613;SDS011;1821;50.936;6.854;2022-08-19T02:45:55;11.98;;;10.77;;
3613;SDS011;1821;50.936;6.854;2022-08-19T02:46:37;13.07;;;10.85;;
3613;SDS011;1821;50.936;6.854;2022-08-19T02:47:19;10.38;;;9.13;;
3613;SDS011;1821;50.936;6.854;2022-08-19T02:48:01;10.05;;;9.00;;
3613;SDS011;1821;50.936;6.854;2022-08-19T02:48:53;10.68;;;9.68;;
3613;SDS011;1821;50.936;6.854;2022-08-19T02:49:37;11.88;;;10.00;;
3613;SDS011;1821;50.936;6.854;2022-08-19T02:50:19;12.50;;;9.90;;
3613;SDS011;1821;50.936;6.854;2022-08-19T02:51:00;11.60;;;10.40;;
3613;SDS011;1821;50.936;6.854;2022-08-19T02:51:43;12.35;;;11.05;;
3613;SDS011;1821;50.936;6.854;2022-08-19T02:52:26;11.50;;;10.40;;
3613;SDS011;1821;50.936;6.854;2022-08-19T02:53:09;11.00;;;9.90;;
3613;SDS011;1821;50.936;6.854;2022-08-19T02:53:53;13.65;;;10.50;;
3613;SDS011;1821;50.936;6.854;2022-08-19T02:54:35;12.35;;;9.65;;
3613;SDS011;1821;50.936;6.854;2022-08-19T02:55:17;11.68;;;9.73;;
3613;SDS011;1821;50.936;6.854;2022-08-19T02:55:59;11.75;;;10.55;;
3613;SDS011;1821;50.936;6.854;2022-08-19T02:56:42;11.73;;;10.63;;
3613;SDS011;1821;50.936;6.854;2022-08-19T02:57:25;11.48;;;10.35;;
3613;SDS011;1821;50.936;6.854;2022-08-19T02:58:07;10.77;;;9.70;;
3613;SDS011;1821;50.936;6.854;2022-08-19T02:58:49;11.60;;;9.35;;
3613;SDS011;1821;50.936;6.854;2022-08-19T02:59:32;11.70;;;10.40;;
3613;SDS011;1821;50.936;6.854;2022-08-19T03:00:14;12.52;;;10.25;;
3613;SDS011;1821;50.936;6.854;2022-08-19T03:00:57;11.95;;;10.40;;
3613;SDS011;1821;50.936;6.854;2022-08-19T03:01:40;11.48;;;10.38;;
3613;SDS011;1821;50.936;6.854;2022-08-19T03:02:23;12.30;;;11.10;;
3613;SDS011;1821;50.936;6.854;2022-08-19T03:03:05;12.05;;;10.90;;
3613;SDS011;1821;50.936;6.854;2022-08-19T03:03:46;11.80;;;10.60;;
3613;SDS011;1821;50.936;6.854;2022-08-19T03:04:28;13.50;;;10.98;;
3613;SDS011;1821;50.936;6.854;2022-08-19T03:05:10;12.80;;;11.23;;
3613;SDS011;1821;50.936;6.854;2022-08-19T03:06:02;11.93;;;10.48;;
3613;SDS011;1821;50.936;6.854;2022-08-19T03:06:49;12.55;;;10.57;;
3613;SDS011;1821;50.936;6.854;2022-08-19T03:07:31;10.70;;;9.60;;
3613;SDS011;1821;50.936;6.854;2022-08-19T03:08:13;13.32;;;10.63;;
3613;SDS011;1821;50.936;6.854;2022-08-19T03:08:55;13.25;;;11.85;;
3613;SDS011;1821;50.936;6.854;2022-08-19T03:09:39;13.45;;;11.98;;
3613;SDS011;1821;50.936;6.854;2022-08-19T03:10:21;15.00;;;11.63;;
3613;SDS011;1821;50.936;6.854;2022-08-19T03:11:02;12.63;;;11.30;;
3613;SDS011;1821;50.936;6.854;2022-08-19T03:11:45;14.67;;;11.90;;
3613;SDS011;1821;50.936;6.854;2022-08-19T03:12:29;14.63;;;12.27;;
3613;SDS011;1821;50.936;6.854;2022-08-19T03:13:14;13.18;;;11.10;;
3613;SDS011;1821;50.936;6.854;2022-08-19T03:13:58;11.82;;;10.52;;
3613;SDS011;1821;50.936;6.854;2022-08-19T03:14:41;12.02;;;10.63;;
3613;SDS011;1821;50.936;6.854;2022-08-19T03:15:23;12.85;;;10.25;;
3613;SDS011;1821;50.936;6.854;2022-08-19T03:16:05;13.73;;;11.02;;
3613;SDS011;1821;50.936;6.854;2022-08-19T03:16:47;13.10;;;10.80;;
3613;SDS011;1821;50.936;6.854;2022-08-19T03:17:30;13.35;;;10.60;;
3613;SDS011;1821;50.936;6.854;2022-08-19T03:18:12;12.32;;;10.57;;
3613;SDS011;1821;50.936;6.854;2022-08-19T03:18:56;11.20;;;10.10;;
3613;SDS011;1821;50.936;6.854;2022-08-19T03:19:41;11.40;;;10.30;;
3613;SDS011;1821;50.936;6.854;2022-08-19T03:20:24;11.82;;;10.63;;
3613;SDS011;1821;50.936;6.854;2022-08-19T03:21:06;13.50;;;11.82;;
3613;SDS011;1821;50.936;6.854;2022-08-19T03:21:52;14.40;;;11.63;;
3613;SDS011;1821;50.936;6.854;2022-08-19T03:22:34;12.23;;;11.02;;
3613;SDS011;1821;50.936;6.854;2022-08-19T03:23:16;14.95;;;11.48;;
3613;SDS011;1821;50.936;6.854;2022-08-19T03:24:00;12.68;;;10.93;;
3613;SDS011;1821;50.936;6.854;2022-08-19T03:24:44;12.20;;;9.73;;
3613;SDS011;1821;50.936;6.854;2022-08-19T03:25:25;13.32;;;10.27;;
3613;SDS011;1821;50.936;6.854;2022-08-19T03:26:07;12.07;;;10.45;;
3613;SDS011;1821;50.936;6.854;2022-08-19T03:26:57;11.95;;;10.25;;
3613;SDS011;1821;50.936;6.854;2022-08-19T03:27:39;11.90;;;10.63;;
3613;SDS011;1821;50.936;6.854;2022-08-19T03:28:21;12.80;;;11.00;;
3613;SDS011;1821;50.936;6.854;2022-08-19T03:29:03;11.90;;;10.10;;
3613;SDS011;1821;50.936;6.854;2022-08-19T03:29:46;11.65;;;10.45;;
3613;SDS011;1821;50.936;6.854;2022-08-19T03:30:29;12.20;;;11.00;;
3613;SDS011;1821;50.936;6.854;2022-08-19T03:31:13;11.57;;;10.02;;
3613;SDS011;1821;50.936;6.854;2022-08-19T03:32:15;13.45;;;9.70;;
3613;SDS011;1821;50.936;6.854;2022-08-19T03:33:13;13.00;;;10.27;;
3613;SDS011;1821;50.936;6.854;2022-08-19T03:34:09;11.00;;;9.90;;
3613;SDS011;1821;50.936;6.854;2022-08-19T03:34:55;12.50;;;11.00;;
3613;SDS011;1821;50.936;6.854;2022-08-19T03:35:37;14.05;;;10.80;;
3613;SDS011;1821;50.936;6.854;2022-08-19T03:36:21;11.75;;;10.48;;
3613;SDS011;1821;50.936;6.854;2022-08-19T03:37:06;12.07;;;10.77;;
3613;SDS011;1821;50.936;6.854;2022-08-19T03:37:50;13.48;;;10.75;;
3613;SDS011;1821;50.936;6.854;2022-08-19T03:38:37;11.48;;;10.27;;
3613;SDS011;1821;50.936;6.854;2022-08-19T03:39:21;11.30;;;10.20;;
3613;SDS011;1821;50.936;6.854;2022-08-19T03:40:04;12.52;;;9.45;;
3613;SDS011;1821;50.936;6.854;2022-08-19T03:40:46;12.00;;;9.30;;
3613;SDS011;1821;50.936;6.854;2022-08-19T03:41:32;11.68;;;9.85;;
3613;SDS011;1821;50.936;6.854;2022-08-19T03:42:26;11.57;;;10.38;;
3613;SDS011;1821;50.936;6.854;2022-08-19T03:43:28;11.18;;;9.98;;
3613;SDS011;1821;50.936;6.854;2022-08-19T03:44:09;12.00;;;10.23;;
3613;SDS011;1821;50.936;6.854;2022-08-19T03:44:58;12.05;;;10.77;;
3613;SDS011;1821;50.936;6.854;2022-08-19T03:45:40;11.43;;;10.23;;
3613;SDS011;1821;50.936;6.854;2022-08-19T03:46:23;11.57;;;10.45;;
3613;SDS011;1821;50.936;6.854;2022-08-19T03:47:07;11.27;;;10.13;;
3613;SDS011;1821;50.936;6.854;2022-08-19T03:47:49;12.52;;;11.27;;
3613;SDS011;1821;50.936;6.854;2022-08-19T03:48:31;13.07;;;10.52;;
3613;SDS011;1821;50.936;6.854;2022-08-19T03:49:14;12.70;;;11.07;;
3613;SDS011;1821;50.936;6.854;2022-08-19T03:49:58;13.00;;;11.50;;
3613;SDS011;1821;50.936;6.854;2022-08-19T03:50:40;12.80;;;10.70;;
3613;SDS011;1821;50.936;6.854;2022-08-19T03:51:26;11.77;;;10.57;;
3613;SDS011;1821;50.936;6.854;2022-08-19T03:52:14;13.13;;;11.82;;
3613;SDS011;1821;50.936;6.854;2022-08-19T03:52:55;12.05;;;10.50;;
3613;SDS011;1821;50.936;6.854;2022-08-19T03:53:37;13.60;;;11.35;;
3613;SDS011;1821;50.936;6.854;2022-08-19T03:54:20;13.77;;;11.35;;
3613;SDS011;1821;50.936;6.854;2022-08-19T03:55:04;13.27;;;11.60;;
3613;SDS011;1821;50.936;6.854;2022-08-19T03:55:46;15.02;;;11.18;;
3613;SDS011;1821;50.936;6.854;2022-08-19T03:56:28;14.65;;;11.40;;
3613;SDS011;1821;50.936;6.854;2022-08-19T03:57:10;13.25;;;11.18;;
3613;SDS011;1821;50.936;6.854;2022-08-19T03:57:52;12.70;;;11.40;;
3613;SDS011;1821;50.936;6.854;2022-08-19T03:58:39;13.25;;;11.85;;
3613;SDS011;1821;50.936;6.854;2022-08-19T03:59:26;13.15;;;11.30;;
3613;SDS011;1821;50.936;6.854;2022-08-19T04:00:10;13.40;;;11.60;;
3613;SDS011;1821;50.936;6.854;2022-08-19T04:00:55;13.02;;;11.13;;
3613;SDS011;1821;50.936;6.854;2022-08-19T04:01:37;12.23;;;10.88;;
3613;SDS011;1821;50.936;6.854;2022-08-19T04:02:19;18.83;;;11.75;;
3613;SDS011;1821;50.936;6.854;2022-08-19T04:03:01;20.50;;;11.23;;
3613;SDS011;1821;50.936;6.854;2022-08-19T04:03:43;12.23;;;10.98;;
3613;SDS011;1821;50.936;6.854;2022-08-19T04:04:27;13.90;;;11.52;;
3613;SDS011;1821;50.936;6.854;2022-08-19T04:05:12;12.50;;;11.20;;
3613;SDS011;1821;50.936;6.854;2022-08-19T04:05:55;12.20;;;10.73;;
3613;SDS011;1821;50.936;6.854;2022-08-19T04:06:37;12.05;;;10.75;;
3613;SDS011;1821;50.936;6.854;2022-08-19T04:07:20;12.35;;;10.63;;
3613;SDS011;1821;50.936;6.854;2022-08-19T04:08:02;11.43;;;10.20;;
3613;SDS011;1821;50.936;6.854;2022-08-19T04:08:45;12.80;;;11.50;;
3613;SDS011;1821;50.936;6.854;2022-08-19T04:09:28;13.35;;;11.95;;
3613;SDS011;1821;50.936;6.854;2022-08-19T04:10:10;14.40;;;12.40;;
3613;SDS011;1821;50.936;6.854;2022-08-19T04:10:54;13.50;;;12.07;;
3613;SDS011;1821;50.936;6.854;2022-08-19T04:11:40;13.45;;;12.05;;
3613;SDS011;1821;50.936;6.854;2022-08-19T04:12:25;13.50;;;12.10;;
3613;SDS011;1821;50.936;6.854;2022-08-19T04:13:07;13.88;;;11.65;;
3613;SDS011;1821;50.936;6.854;2022-08-19T04:13:50;13.98;;;12.20;;
3613;SDS011;1821;50.936;6.854;2022-08-19T04:14:33;13.10;;;11.70;;
3613;SDS011;1821;50.936;6.854;2022-08-19T04:15:15;12.75;;;10.82;;
3613;SDS011;1821;50.936;6.854;2022-08-19T04:15:57;12.60;;;10.88;;
3613;SDS011;1821;50.936;6.854;2022-08-19T04:16:39;12.48;;;10.27;;
3613;SDS011;1821;50.936;6.854;2022-08-19T04:17:21;15.70;;;10.77;;
3613;SDS011;1821;50.936;6.854;2022-08-19T04:18:03;13.73;;;11.85;;
3613;SDS011;1821;50.936;6.854;2022-08-19T04:18:48;12.65;;;11.35;;
3613;SDS011;1821;50.936;6.854;2022-08-19T04:19:31;12.25;;;11.05;;
3613;SDS011;1821;50.936;6.854;2022-08-19T04:20:14;12.95;;;11.55;;
3613;SDS011;1821;50.936;6.854;2022-08-19T04:20:55;15.13;;;11.40;;
3613;SDS011;1821;50.936;6.854;2022-08-19T04:21:37;14.50;;;11.13;;
3613;SDS011;1821;50.936;6.854;2022-08-19T04:22:19;13.35;;;11.95;;
3613;SDS011;1821;50.936;6.854;2022-08-19T04:23:01;13.75;;;12.25;;
3613;SDS011;1821;50.936;6.854;2022-08-19T04:23:43;14.15;;;11.90;;
3613;SDS011;1821;50.936;6.854;2022-08-19T04:24:27;13.02;;;11.63;;
3613;SDS011;1821;50.936;6.854;2022-08-19T04:25:09;13.40;;;11.80;;
3613;SDS011;1821;50.936;6.854;2022-08-19T04:25:51;14.75;;;11.93;;
3613;SDS011;1821;50.936;6.854;2022-08-19T04:26:34;13.02;;;11.68;;
3613;SDS011;1821;50.936;6.854;2022-08-19T04:27:17;13.70;;;12.23;;
3613;SDS011;1821;50.936;6.854;2022-08-19T04:27:59;15.00;;;12.85;;
3613;SDS011;1821;50.936;6.854;2022-08-19T04:28:41;13.98;;;12.55;;
3613;SDS011;1821;50.936;6.854;2022-08-19T04:29:24;15.27;;;13.00;;
3613;SDS011;1821;50.936;6.854;2022-08-19T04:30:08;13.45;;;12.13;;